Time;durP1;ratioP1;P1;durP2;ratioP2;P2;SDS_P1;SDS_P2;PMS_P1;PMS_P2;Temp;Humidity;BMP_temperature;BMP_pressure;BME280_temperature;BME280_humidity;BME280_pressure;Samples;Min_cycle;Max_cycle;Signal;HPM_P1;HPM_P2
2023/12/15 00:00:42;;;;;;;16.75;6.30;;;;;;;6.00;100.00;100937.72;12200481;19;20045;-84
2023/12/15 00:04:43;;;;;;;15.60;5.80;;;;;;;6.03;100.00;100950.16;12201212;19;20110;-86
2023/12/15 00:08:45;;;;;;;18.23;6.45;;;;;;;6.03;100.00;100942.78;12184784;19;20010;-87
2023/12/15 00:12:47;;;;;;;18.52;6.00;;;;;;;6.05;100.00;100950.81;12221241;19;20014;-85
2023/12/15 00:16:49;;;;;;;11.15;4.70;;;;;;;6.08;100.00;100962.22;12226720;19;19999;-85
2023/12/15 00:20:51;;;;;;;15.40;6.10;;;;;;;6.04;100.00;100968.25;12190648;19;20081;-83
2023/12/15 00:24:52;;;;;;;14.90;6.35;;;;;;;6.03;100.00;100974.78;12212362;19;20021;-85
2023/12/15 00:28:54;;;;;;;14.27;6.35;;;;;;;6.03;100.00;100983.84;12211712;19;20015;-86
2023/12/15 00:32:56;;;;;;;19.63;5.47;;;;;;;6.02;100.00;100979.41;12190359;19;20010;-86
2023/12/15 00:36:58;;;;;;;13.00;5.38;;;;;;;6.03;100.00;100991.22;12211586;19;20122;-86
2023/12/15 00:41:00;;;;;;;15.20;6.25;;;;;;;5.96;100.00;100988.38;12254176;19;20736;-83
2023/12/15 00:45:02;;;;;;;19.65;6.10;;;;;;;5.93;100.00;100996.97;12242801;19;20037;-85
2023/12/15 00:49:04;;;;;;;14.50;5.80;;;;;;;5.87;100.00;100995.81;12252014;19;20002;-84
2023/12/15 00:53:06;;;;;;;13.57;5.53;;;;;;;5.84;100.00;101009.03;12249116;19;20010;-83
2023/12/15 00:57:07;;;;;;;16.23;6.30;;;;;;;5.75;100.00;101016.50;12209312;19;19999;-84
2023/12/15 01:01:09;;;;;;;16.55;6.68;;;;;;;5.68;100.00;101027.34;12206715;19;20014;-86
2023/12/15 01:05:11;;;;;;;14.43;5.13;;;;;;;5.60;100.00;101015.63;12205542;19;20015;-84
2023/12/15 01:09:13;;;;;;;17.00;6.83;;;;;;;5.52;100.00;101029.38;12179700;19;20682;-84
2023/12/15 01:13:15;;;;;;;18.05;6.07;;;;;;;5.56;100.00;101033.44;12203096;19;20002;-85
2023/12/15 01:17:17;;;;;;;22.93;7.13;;;;;;;5.56;100.00;101036.16;12205837;19;20071;-83
2023/12/15 01:21:19;;;;;;;15.35;6.00;;;;;;;5.53;100.00;101037.38;12174902;19;20046;-84
2023/12/15 01:25:21;;;;;;;16.90;6.97;;;;;;;5.51;100.00;101047.69;12202692;19;20003;-83
2023/12/15 01:29:22;;;;;;;15.95;6.00;;;;;;;5.53;100.00;101052.94;12179597;19;20096;-84
2023/12/15 01:33:24;;;;;;;13.73;6.13;;;;;;;5.54;100.00;101058.25;12200097;19;20021;-85
2023/12/15 01:37:26;;;;;;;18.52;7.07;;;;;;;5.57;100.00;101057.03;12203355;19;20026;-85
2023/12/15 01:41:28;;;;;;;15.98;6.47;;;;;;;5.63;100.00;101056.28;12178966;19;20469;-84
2023/12/15 01:45:30;;;;;;;17.52;6.75;;;;;;;5.61;100.00;101050.97;12200542;19;20679;-84
2023/12/15 01:49:31;;;;;;;19.85;7.10;;;;;;;5.61;100.00;101061.06;12201358;19;20010;-84
2023/12/15 01:53:33;;;;;;;18.15;7.43;;;;;;;5.66;100.00;101072.31;12180276;19;20010;-85
2023/12/15 01:57:35;;;;;;;24.02;7.40;;;;;;;5.66;100.00;101075.06;12203180;19;20002;-85
2023/12/15 02:01:37;;;;;;;19.27;7.07;;;;;;;5.68;100.00;101094.84;12198402;19;19998;-85
2023/12/15 02:05:39;;;;;;;16.73;6.17;;;;;;;5.74;100.00;101094.13;12177090;19;20335;-85
2023/12/15 02:09:41;;;;;;;19.80;7.13;;;;;;;5.76;100.00;101102.97;12201309;19;20074;-86
2023/12/15 02:13:43;;;;;;;19.73;7.32;;;;;;;5.78;100.00;101109.09;12203939;19;20019;-85
2023/12/15 02:17:45;;;;;;;18.55;6.70;;;;;;;5.78;100.00;101100.91;12174752;19;20018;-86
2023/12/15 02:21:47;;;;;;;19.98;6.57;;;;;;;5.80;100.00;101109.78;12197336;19;20006;-85
2023/12/15 02:25:48;;;;;;;16.45;7.57;;;;;;;5.84;100.00;101105.63;12201891;19;20021;-87
2023/12/15 02:29:50;;;;;;;19.58;6.90;;;;;;;5.89;100.00;101103.19;12179533;19;20086;-86
2023/12/15 02:33:54;;;;;;;16.40;6.50;;;;;;;5.91;100.00;101103.81;12201133;19;20031;-85
2023/12/15 02:37:56;;;;;;;18.80;7.00;;;;;;;5.89;100.00;101103.19;12202451;19;20023;-86
2023/12/15 02:41:58;;;;;;;17.70;7.03;;;;;;;5.92;100.00;101116.47;12179611;19;20014;-86
2023/12/15 02:46:00;;;;;;;19.60;7.60;;;;;;;5.93;100.00;101115.47;12201773;19;20371;-85
2023/12/15 02:50:02;;;;;;;23.00;8.55;;;;;;;5.92;100.00;101115.63;12211506;19;20018;-87
2023/12/15 02:54:04;;;;;;;16.50;6.23;;;;;;;5.92;100.00;101116.47;12194279;19;20014;-86
2023/12/15 02:58:06;;;;;;;17.53;7.17;;;;;;;5.94;100.00;101125.38;12207373;19;20078;-85
2023/12/15 03:02:07;;;;;;;18.38;7.20;;;;;;;5.95;100.00;101126.25;12205219;19;20013;-86
2023/12/15 03:06:09;;;;;;;16.77;6.05;;;;;;;5.93;100.00;101129.16;12179779;19;20003;-85
2023/12/15 03:10:11;;;;;;;20.65;7.22;;;;;;;5.91;100.00;101150.31;12200843;19;20026;-85
2023/12/15 03:14:13;;;;;;;27.27;8.68;;;;;;;5.93;100.00;101144.72;12200554;19;20014;-83
2023/12/15 03:18:14;;;;;;;21.67;7.60;;;;;;;5.93;100.00;101145.56;12180932;19;20127;-84
2023/12/15 03:22:16;;;;;;;22.23;6.97;;;;;;;5.92;100.00;101149.31;12202538;19;20043;-83
2023/12/15 03:26:18;;;;;;;18.70;7.47;;;;;;;5.94;100.00;101155.47;12204819;19;20011;-86
2023/12/15 03:30:20;;;;;;;16.90;7.15;;;;;;;5.96;100.00;101155.28;12185024;19;20027;-84
2023/12/15 03:34:22;;;;;;;18.50;7.50;;;;;;;5.99;100.00;101156.81;12206960;19;20408;-86
2023/12/15 03:38:23;;;;;;;16.38;7.40;;;;;;;6.00;100.00;101150.28;12183162;19;20011;-85
2023/12/15 03:42:25;;;;;;;17.27;7.07;;;;;;;6.02;100.00;101148.22;12204777;19;20006;-85
2023/12/15 03:46:27;;;;;;;18.00;7.30;;;;;;;6.02;100.00;101149.06;12205171;19;20023;-86
2023/12/15 03:50:29;;;;;;;20.65;7.60;;;;;;;5.98;100.00;101152.34;12191866;19;20009;-85
2023/12/15 03:54:31;;;;;;;16.23;5.83;;;;;;;5.91;100.00;101153.06;12214891;19;20009;-85
2023/12/15 03:58:32;;;;;;;18.33;6.82;;;;;;;5.72;100.00;101164.56;12207587;19;20031;-86
2023/12/15 04:02:35;;;;;;;17.95;6.38;;;;;;;5.53;100.00;101170.53;12191308;19;20641;-84
2023/12/15 04:06:37;;;;;;;16.73;6.93;;;;;;;5.35;100.00;101168.94;12233209;19;19998;-82
2023/12/15 04:10:39;;;;;;;18.05;6.63;;;;;;;5.24;100.00;101172.13;12245844;19;20086;-86
2023/12/15 04:14:41;;;;;;;16.77;6.82;;;;;;;5.12;100.00;101168.97;12197473;19;20058;-86
2023/12/15 04:18:43;;;;;;;17.00;7.10;;;;;;;5.11;100.00;101190.97;12216779;19;20628;-84
2023/12/15 04:22:44;;;;;;;18.30;6.83;;;;;;;5.17;100.00;101193.84;12218255;19;20019;-85
2023/12/15 04:26:46;;;;;;;20.48;7.20;;;;;;;5.25;100.00;101195.69;12186817;19;20017;-84
2023/12/15 04:30:48;;;;;;;18.08;7.03;;;;;;;5.32;100.00;101206.72;12211905;19;20418;-83
2023/12/15 04:34:50;;;;;;;20.73;7.45;;;;;;;5.37;100.00;101216.09;12212644;19;20078;-83
2023/12/15 04:38:51;;;;;;;19.20;7.65;;;;;;;5.47;100.00;101215.84;12188090;19;20465;-87
2023/12/15 04:42:54;;;;;;;17.63;6.90;;;;;;;5.53;100.00;101219.72;12210524;19;20002;-86
2023/12/15 04:46:56;;;;;;;18.70;7.32;;;;;;;5.58;100.00;101211.84;12207612;19;20074;-85
2023/12/15 04:50:58;;;;;;;18.30;7.25;;;;;;;5.62;100.00;101208.56;12183068;19;20010;-84
2023/12/15 04:55:00;;;;;;;16.90;7.32;;;;;;;5.63;100.00;101223.09;12203378;19;20179;-83
2023/12/15 04:59:01;;;;;;;21.30;8.30;;;;;;;5.64;100.00;101227.50;12207768;19;20011;-84
2023/12/15 05:03:03;;;;;;;19.83;7.77;;;;;;;5.67;100.00;101235.34;12184209;19;20002;-83
2023/12/15 05:07:05;;;;;;;18.55;7.47;;;;;;;5.69;100.00;101242.34;12204662;19;20960;-83
2023/12/15 05:11:07;;;;;;;19.55;7.25;;;;;;;5.69;100.00;101238.75;12204380;19;20034;-82
2023/12/15 05:15:09;;;;;;;21.63;7.97;;;;;;;5.71;100.00;101242.16;12183070;19;20006;-84
2023/12/15 05:19:11;;;;;;;23.93;8.07;;;;;;;5.71;100.00;101259.44;12204819;19;20010;-84
2023/12/15 05:23:14;;;;;;;21.60;8.50;;;;;;;5.76;100.00;101267.06;12207493;19;20027;-83
2023/12/15 05:27:15;;;;;;;20.98;8.70;;;;;;;5.77;100.00;101281.59;12193946;19;21283;-84
2023/12/15 05:31:17;;;;;;;22.45;8.98;;;;;;;5.78;100.00;101289.63;12212686;19;20006;-84
2023/12/15 05:35:19;;;;;;;20.83;8.95;;;;;;;5.75;100.00;101297.34;12209424;19;20011;-85
2023/12/15 05:39:21;;;;;;;20.95;8.32;;;;;;;5.70;100.00;101306.94;12187186;19;20035;-84
2023/12/15 05:43:23;;;;;;;26.38;9.63;;;;;;;5.64;100.00;101317.75;12208706;19;20018;-84
2023/12/15 05:47:24;;;;;;;24.88;8.55;;;;;;;5.61;100.00;101323.59;12185249;19;20014;-85
2023/12/15 05:51:26;;;;;;;22.58;9.45;;;;;;;5.52;100.00;101338.34;12203044;19;20506;-84
2023/12/15 05:55:28;;;;;;;21.98;8.65;;;;;;;5.43;100.00;101329.34;12204312;19;20015;-84
2023/12/15 05:59:30;;;;;;;24.17;9.02;;;;;;;5.35;100.00;101338.41;12182417;19;20024;-85
2023/12/15 06:03:31;;;;;;;23.17;9.40;;;;;;;5.28;100.00;101336.59;12208069;19;20007;-84
2023/12/15 06:07:36;;;;;;;23.25;8.95;;;;;;;5.24;100.00;101350.63;12207970;19;20010;-84
2023/12/15 06:11:40;;;;;;;23.45;8.93;;;;;;;5.17;100.00;101343.28;12187976;19;20014;-83
2023/12/15 06:15:42;;;;;;;20.30;8.15;;;;;;;5.08;100.00;101352.53;12205089;19;20031;-83
2023/12/15 06:19:44;;;;;;;23.88;10.20;;;;;;;4.99;100.00;101346.25;12203758;19;20344;-85
2023/12/15 06:23:45;;;;;;;22.08;8.68;;;;;;;4.95;100.00;101359.41;12184121;19;20088;-84
2023/12/15 06:27:47;;;;;;;23.83;8.52;;;;;;;4.90;100.00;101356.34;12203955;19;20010;-84
2023/12/15 06:31:49;;;;;;;24.73;8.30;;;;;;;4.84;100.00;101356.22;12201788;19;20017;-83
2023/12/15 06:35:51;;;;;;;21.45;8.02;;;;;;;4.83;100.00;101360.81;12181848;19;20012;-83
2023/12/15 06:39:53;;;;;;;30.05;8.23;;;;;;;4.87;100.00;101359.44;12205791;19;20088;-82
2023/12/15 06:43:55;;;;;;;20.92;7.63;;;;;;;4.94;100.00;101357.72;12204480;19;20023;-83
2023/12/15 06:47:57;;;;;;;20.83;9.33;;;;;;;4.95;100.00;101359.41;12184009;19;20007;-84
2023/12/15 06:52:00;;;;;;;22.08;8.63;;;;;;;4.92;100.00;101357.03;12206902;19;20018;-83
2023/12/15 06:56:02;;;;;;;25.60;8.23;;;;;;;4.89;100.00;101373.78;12217571;19;20002;-82
2023/12/15 07:00:06;;;;;;;20.52;8.90;;;;;;;4.87;100.00;101373.09;12186889;19;20011;-83
2023/12/15 07:04:08;;;;;;;19.20;8.88;;;;;;;4.90;100.00;101378.22;12205106;19;20077;-83
2023/12/15 07:08:10;;;;;;;21.83;8.65;;;;;;;4.94;100.00;101390.50;12212703;19;20003;-84
2023/12/15 07:12:12;;;;;;;17.50;7.63;;;;;;;5.01;100.00;101390.66;12224577;19;21242;-83
2023/12/15 07:16:15;;;;;;;24.55;8.23;;;;;;;5.09;100.00;101378.88;12208808;19;20110;-85
2023/12/15 07:20:16;;;;;;;24.35;8.00;;;;;;;5.18;100.00;101391.47;12213181;19;20074;-83
2023/12/15 07:24:18;;;;;;;19.38;8.45;;;;;;;5.25;100.00;101389.72;12209000;19;20190;-83
2023/12/15 07:28:20;;;;;;;19.13;8.93;;;;;;;5.35;100.00;101401.28;12261777;19;20014;-85
2023/12/15 07:32:22;;;;;;;20.77;10.15;;;;;;;5.44;100.00;101403.00;12230413;19;20481;-85
2023/12/15 07:36:23;;;;;;;19.42;8.50;;;;;;;5.44;100.00;101408.44;12197387;19;20018;-84
2023/12/15 07:40:25;;;;;;;20.58;8.05;;;;;;;5.46;100.00;101406.38;12221991;19;20022;-84
2023/12/15 07:44:27;;;;;;;21.55;8.00;;;;;;;5.47;100.00;101419.03;12225703;19;20040;-86
2023/12/15 07:48:29;;;;;;;23.55;9.27;;;;;;;5.50;100.00;101417.81;12207154;19;20007;-83
2023/12/15 07:52:30;;;;;;;16.90;7.07;;;;;;;5.53;100.00;101427.53;12235628;19;20007;-83
2023/12/15 07:56:33;;;;;;;13.03;5.87;;;;;;;5.49;100.00;101430.63;12217996;19;20382;-83
2023/12/15 08:00:35;;;;;;;20.47;7.93;;;;;;;5.58;100.00;101444.28;12230055;19;20247;-84
2023/12/15 08:04:37;;;;;;;21.73;7.97;;;;;;;5.64;100.00;101440.81;12240655;19;20014;-84
2023/12/15 08:08:40;;;;;;;17.58;8.35;;;;;;;5.78;100.00;101441.97;12223016;19;20010;-83
2023/12/15 08:12:42;;;;;;;;;;;;;;;5.82;100.00;101429.63;12252600;19;20014;-82
2023/12/15 08:16:44;;;;;;;21.20;9.20;;;;;;;5.85;100.00;101440.22;12243570;19;19919;-82
2023/12/15 08:20:47;;;;;;;20.08;8.35;;;;;;;5.88;100.00;101459.84;12188276;19;20029;-82
2023/12/15 08:24:49;;;;;;;17.85;8.43;;;;;;;5.98;100.00;101480.69;12211341;19;20502;-82
2023/12/15 08:28:53;;;;;;;24.80;8.57;;;;;;;6.14;100.00;101486.09;12213998;19;20467;-84
2023/12/15 08:32:58;;;;;;;17.60;7.50;;;;;;;6.25;100.00;101495.78;12198499;19;20007;-82
2023/12/15 08:37:00;;;;;;;20.50;9.25;;;;;;;6.38;100.00;101499.63;12218833;19;20007;-83
2023/12/15 08:41:02;;;;;;;20.05;8.13;;;;;;;6.46;100.00;101500.63;12216713;19;20018;-83
2023/12/15 08:45:06;;;;;;;25.58;8.43;;;;;;;6.56;100.00;101503.97;12196236;19;20720;-83
2023/12/15 08:49:08;;;;;;;18.67;9.25;;;;;;;6.65;100.00;101502.03;12213304;19;20124;-84
2023/12/15 08:53:12;;;;;;;19.58;8.23;;;;;;;6.72;100.00;101505.72;12213536;19;20070;-82
2023/12/15 08:57:14;;;;;;;22.20;9.52;;;;;;;6.77;100.00;101509.63;12192721;19;20010;-84
2023/12/15 09:01:16;;;;;;;22.33;9.27;;;;;;;6.89;100.00;101515.50;12210653;19;20084;-82
2023/12/15 09:05:20;;;;;;;20.90;8.88;;;;;;;6.96;100.00;101523.84;12214663;19;20018;-83
2023/12/15 09:09:41;;;;;;;25.58;10.65;;;;;;;7.02;100.00;101513.03;12191722;19;20510;-82
2023/12/15 09:13:43;;;;;;;20.35;9.30;;;;;;;7.00;100.00;101504.13;12212876;19;20002;-83
2023/12/15 09:17:46;;;;;;;23.08;9.38;;;;;;;7.09;100.00;101510.38;12188255;19;20010;-82
2023/12/15 09:21:48;;;;;;;24.05;9.18;;;;;;;7.17;100.00;101529.50;12202613;19;20011;-84
2023/12/15 09:25:50;;;;;;;17.08;8.38;;;;;;;7.19;100.00;101546.59;12204235;19;20023;-82
2023/12/15 09:29:52;;;;;;;18.25;8.50;;;;;;;7.03;100.00;101555.81;12180965;19;20035;-82
2023/12/15 09:33:53;;;;;;;16.50;6.55;;;;;;;6.99;100.00;101559.09;12207310;19;20878;-83
2023/12/15 09:37:55;;;;;;;17.70;9.07;;;;;;;7.03;100.00;101571.44;12181235;19;20340;-82
2023/12/15 09:41:58;;;;;;;19.60;8.80;;;;;;;7.29;100.00;101569.16;12188587;19;20010;-82
2023/12/15 09:45:59;;;;;;;20.53;9.70;;;;;;;7.64;100.00;101563.97;12210178;19;20048;-81
2023/12/15 09:50:04;;;;;;;18.60;8.82;;;;;;;7.94;100.00;101570.34;12205198;19;20007;-82
2023/12/15 09:54:06;;;;;;;19.88;9.40;;;;;;;8.15;100.00;101564.09;12185647;19;20003;-83
2023/12/15 09:58:09;;;;;;;20.63;9.65;;;;;;;8.23;100.00;101566.72;12206664;19;20526;-83
2023/12/15 10:02:10;;;;;;;21.88;8.90;;;;;;;8.17;100.00;101572.13;12200391;19;20002;-82
2023/12/15 10:06:13;;;;;;;19.73;8.95;;;;;;;8.15;100.00;101585.19;12183234;19;20009;-81
2023/12/15 10:10:15;;;;;;;20.25;9.20;;;;;;;8.15;100.00;101587.94;12203371;19;20587;-82
2023/12/15 10:14:19;;;;;;;20.57;9.37;;;;;;;8.18;100.00;101596.66;12208858;19;20010;-82
2023/12/15 10:18:22;;;;;;;20.92;9.10;;;;;;;8.31;100.00;101603.38;12182257;19;21646;-81
2023/12/15 10:22:38;;;;;;;16.98;8.50;;;;;;;8.32;100.00;101602.31;12206823;19;20010;-83
2023/12/15 10:26:41;;;;;;;16.42;8.23;;;;;;;8.30;100.00;101613.50;12183802;19;20038;-82
2023/12/15 10:30:43;;;;;;;18.77;9.13;;;;;;;8.28;100.00;101612.84;12207945;19;20069;-82
2023/12/15 10:34:46;;;;;;;19.65;8.23;;;;;;;8.23;100.00;101620.78;12214317;19;20007;-82
2023/12/15 10:38:48;;;;;;;16.83;8.05;;;;;;;8.12;100.00;101619.41;12196977;19;20097;-83
2023/12/15 10:42:50;;;;;;;20.33;8.50;;;;;;;8.00;100.00;101637.34;12215984;19;20493;-82
2023/12/15 10:46:53;;;;;;;21.33;9.77;;;;;;;7.97;100.00;101627.63;12230754;19;20010;-81
2023/12/15 10:50:56;;;;;;;17.40;8.43;;;;;;;7.99;100.00;101630.16;12206211;19;20022;-82
2023/12/15 10:55:02;;;;;;;22.73;8.45;;;;;;;8.01;100.00;101640.97;12203668;19;20248;-82
2023/12/15 10:59:06;;;;;;;20.23;8.70;;;;;;;7.95;100.00;101639.84;12204129;19;20019;-83
2023/12/15 11:03:10;;;;;;;17.65;7.88;;;;;;;7.94;100.00;101644.47;12175914;19;20014;-81
2023/12/15 11:07:12;;;;;;;20.20;9.35;;;;;;;7.85;100.00;101644.72;12195509;19;20010;-80
2023/12/15 11:11:24;;;;;;;19.35;9.38;;;;;;;7.81;100.00;101651.63;12196048;19;20027;-80
2023/12/15 11:15:26;;;;;;;23.17;9.77;;;;;;;7.80;100.00;101653.53;12170539;19;20010;-81
2023/12/15 11:19:28;;;;;;;25.00;9.90;;;;;;;7.84;100.00;101656.75;12193407;19;20003;-81
2023/12/15 11:23:30;;;;;;;26.73;10.50;;;;;;;7.87;100.00;101659.13;12194354;19;20019;-81
2023/12/15 11:27:32;;;;;;;21.43;9.40;;;;;;;7.99;100.00;101657.63;12171467;19;20864;-82
2023/12/15 11:31:40;;;;;;;27.60;10.13;;;;;;;8.01;100.00;101666.53;12195173;19;20006;-82
2023/12/15 11:35:42;;;;;;;23.50;9.52;;;;;;;7.91;100.00;101655.84;12171547;19;20526;-82
2023/12/15 11:39:46;;;;;;;23.05;9.90;;;;;;;7.92;100.00;101662.16;12195989;19;20003;-81
2023/12/15 11:43:49;;;;;;;22.17;10.60;;;;;;;7.95;100.00;101640.69;12194460;19;20022;-82
2023/12/15 11:47:53;;;;;;;24.55;10.00;;;;;;;8.11;100.00;101645.13;12178008;19;20023;-82
2023/12/15 11:51:56;;;;;;;24.02;10.55;;;;;;;8.07;100.00;101642.97;12199372;19;20043;-84
2023/12/15 11:56:01;;;;;;;22.93;10.03;;;;;;;7.98;100.00;101634.81;12196832;19;20049;-83
2023/12/15 12:00:03;;;;;;;25.73;10.57;;;;;;;7.97;100.00;101627.63;12173886;19;20776;-83
2023/12/15 12:04:17;;;;;;;27.80;10.88;;;;;;;7.89;100.00;101648.81;12194927;19;20039;-83
2023/12/15 12:08:23;;;;;;;26.83;10.60;;;;;;;7.84;100.00;101648.53;12207644;19;20406;-82
2023/12/15 12:12:28;;;;;;;26.48;12.13;;;;;;;7.83;100.00;101649.56;12181556;19;20031;-82
2023/12/15 12:16:34;;;;;;;25.63;11.32;;;;;;;7.86;100.00;101657.44;12197050;19;20010;-83
2023/12/15 12:20:36;;;;;;;25.10;11.25;;;;;;;7.79;100.00;101640.84;12182267;19;20014;-84
2023/12/15 12:24:38;;;;;;;23.08;10.70;;;;;;;7.82;100.00;101639.63;12200557;19;20007;-82
2023/12/15 12:28:41;;;;;;;30.90;12.10;;;;;;;7.82;100.00;101647.84;12213760;19;20011;-83
2023/12/15 12:32:44;;;;;;;24.38;11.18;;;;;;;7.88;100.00;101663.56;12189332;19;20086;-82
2023/12/15 12:36:46;;;;;;;29.58;11.55;;;;;;;7.95;100.00;101653.56;12204735;19;20372;-82
2023/12/15 12:40:47;;;;;;;29.50;11.25;;;;;;;7.99;100.00;101661.22;12206166;19;20351;-83
2023/12/15 12:44:53;;;;;;;25.50;10.80;;;;;;;8.05;100.00;101664.25;12186053;19;20031;-83
2023/12/15 12:48:55;;;;;;;23.98;10.68;;;;;;;7.99;100.00;101668.59;12208470;19;20014;-84
2023/12/15 12:52:57;;;;;;;22.55;10.02;;;;;;;8.00;100.00;101673.03;12201130;19;20474;-83
2023/12/15 12:56:58;;;;;;;21.33;9.38;;;;;;;8.09;100.00;101658.22;12188584;19;20026;-82
2023/12/15 13:01:01;;;;;;;25.38;10.90;;;;;;;8.14;100.00;101666.72;12200981;19;20026;-83
2023/12/15 13:05:05;;;;;;;28.27;12.20;;;;;;;8.23;100.00;101660.09;12198317;19;20006;-82
2023/12/15 13:09:08;;;;;;;24.65;11.40;;;;;;;8.19;100.00;101678.00;12189737;19;20126;-83
2023/12/15 13:13:12;;;;;;;27.63;11.93;;;;;;;8.23;100.00;101672.97;12206232;19;20023;-83
2023/12/15 13:17:16;;;;;;;21.63;9.77;;;;;;;8.22;100.00;101677.63;12199003;19;20038;-82
2023/12/15 13:21:19;;;;;;;25.10;10.73;;;;;;;8.18;100.00;101676.31;12179286;19;20021;-82
2023/12/15 13:25:20;;;;;;;18.48;10.07;;;;;;;8.08;100.00;101680.34;12204864;19;20028;-84
2023/12/15 13:29:23;;;;;;;21.30;9.60;;;;;;;8.01;100.00;101694.00;12203053;19;20105;-84
2023/12/15 13:33:39;;;;;;;29.33;10.43;;;;;;;8.01;100.00;101699.47;12182509;19;20029;-86
2023/12/15 13:37:41;;;;;;;20.73;10.23;;;;;;;8.04;100.00;101715.56;12204154;19;20031;-84
2023/12/15 13:41:43;;;;;;;27.08;10.40;;;;;;;8.01;100.00;101726.94;12208364;19;20003;-84
2023/12/15 13:45:44;;;;;;;24.33;10.83;;;;;;;8.02;100.00;101711.31;12184590;19;20042;-85
2023/12/15 13:49:58;;;;;;;26.55;11.13;;;;;;;7.99;100.00;101720.75;12202730;19;20058;-83
2023/12/15 13:54:00;;;;;;;27.13;11.43;;;;;;;7.97;100.00;101712.72;12184676;19;20006;-85
2023/12/15 13:58:02;;;;;;;23.30;12.52;;;;;;;7.99;100.00;101713.38;12205545;19;20014;-86
2023/12/15 14:02:04;;;;;;;26.90;12.20;;;;;;;8.03;100.00;101722.13;12201259;19;21738;-84
2023/12/15 14:06:08;;;;;;;22.63;10.93;;;;;;;8.06;100.00;101715.38;12183610;19;20021;-85
2023/12/15 14:10:11;;;;;;;27.23;11.70;;;;;;;8.14;100.00;101726.28;12203724;19;20014;-84
2023/12/15 14:14:16;;;;;;;21.40;10.50;;;;;;;8.13;100.00;101733.69;12207808;19;20034;-86
2023/12/15 14:18:18;;;;;;;25.73;11.75;;;;;;;8.11;100.00;101743.13;12193524;19;20376;-84
2023/12/15 14:22:20;;;;;;;24.10;10.77;;;;;;;8.07;100.00;101737.16;12214149;19;20023;-84
2023/12/15 14:26:22;;;;;;;25.58;11.27;;;;;;;8.04;100.00;101729.31;12211944;19;20054;-83
2023/12/15 14:30:24;;;;;;;25.15;11.40;;;;;;;8.07;100.00;101731.69;12193153;19;20006;-83
2023/12/15 14:34:26;;;;;;;23.95;11.43;;;;;;;8.11;100.00;101743.97;12215784;19;20193;-84
2023/12/15 14:38:28;;;;;;;24.10;11.07;;;;;;;8.12;100.00;101731.97;12217736;19;20010;-83
2023/12/15 14:42:31;;;;;;;27.02;11.38;;;;;;;8.14;100.00;101740.84;12206379;19;20022;-81
2023/12/15 14:46:33;;;;;;;;;;;;;;;8.15;100.00;101747.19;12242420;19;20007;-81
2023/12/15 14:50:37;;;;;;;22.85;10.13;;;;;;;8.15;100.00;101728.84;12241527;19;19919;-81
2023/12/15 14:54:39;;;;;;;21.98;10.80;;;;;;;8.16;100.00;101719.56;12192017;19;20002;-81
2023/12/15 14:58:44;;;;;;;27.30;11.20;;;;;;;8.13;100.00;101724.59;12201637;19;20473;-81
2023/12/15 15:02:46;;;;;;;25.13;10.85;;;;;;;8.07;100.00;101731.69;12203961;19;20574;-82
2023/12/15 15:06:49;;;;;;;22.50;10.97;;;;;;;8.07;100.00;101733.56;12179120;19;20006;-81
2023/12/15 15:10:51;;;;;;;;;;;;;;;8.01;100.00;101737.06;12203498;19;20762;-82
2023/12/15 15:14:52;;;;;;;20.50;9.73;;;;;;;7.97;100.00;101755.78;12178341;19;19910;-81
2023/12/15 15:18:54;;;;;;;19.45;9.30;;;;;;;7.89;100.00;101766.84;12204782;19;21368;-81
2023/12/15 15:22:56;;;;;;;18.33;9.90;;;;;;;7.90;100.00;101774.03;12210337;19;20007;-83
2023/12/15 15:26:58;;;;;;;21.02;9.38;;;;;;;7.91;100.00;101773.00;12188884;19;20015;-81
2023/12/15 15:31:00;;;;;;;25.70;10.23;;;;;;;7.88;100.00;101771.50;12206058;19;20370;-81
2023/12/15 15:35:07;;;;;;;20.33;9.93;;;;;;;7.85;100.00;101760.88;12203969;19;20141;-80
2023/12/15 15:39:09;;;;;;;23.40;10.15;;;;;;;7.81;100.00;101770.50;12184019;19;20374;-81
2023/12/15 15:43:11;;;;;;;25.77;9.75;;;;;;;7.74;100.00;101775.88;12219800;19;20017;-81
2023/12/15 15:47:14;;;;;;;24.07;9.73;;;;;;;7.72;100.00;101780.69;12218820;19;20011;-81
2023/12/15 15:51:24;;;;;;;23.98;10.13;;;;;;;7.73;100.00;101800.75;12194390;19;20006;-81
2023/12/15 15:55:25;;;;;;;19.30;8.90;;;;;;;7.81;100.00;101802.59;12216581;19;20327;-81
2023/12/15 15:59:27;;;;;;;21.65;9.88;;;;;;;7.85;100.00;101815.78;12217477;19;20016;-82
2023/12/15 16:03:29;;;;;;;23.48;10.23;;;;;;;7.82;100.00;101820.75;12200856;19;20023;-81
2023/12/15 16:07:31;;;;;;;21.70;9.85;;;;;;;7.73;100.00;101823.59;12219262;19;20014;-81
2023/12/15 16:11:34;;;;;;;23.10;10.37;;;;;;;7.72;100.00;101827.34;12218049;19;20023;-80
2023/12/15 16:15:36;;;;;;;24.00;10.50;;;;;;;7.64;100.00;101810.91;12197832;19;20006;-80
2023/12/15 16:19:38;;;;;;;23.90;9.82;;;;;;;7.62;100.00;101821.25;12221255;19;20068;-81
2023/12/15 16:23:40;;;;;;;31.48;13.30;;;;;;;7.61;100.00;101825.00;12223961;19;20089;-81
2023/12/15 16:27:42;;;;;;;21.98;10.35;;;;;;;7.61;100.00;101825.00;12200925;19;20014;-81
2023/12/15 16:31:44;;;;;;;16.53;7.80;;;;;;;7.57;100.00;101828.31;12212469;19;20016;-81
2023/12/15 16:35:46;;;;;;;27.13;10.80;;;;;;;7.59;100.00;101827.09;12217820;19;20011;-81
2023/12/15 16:39:48;;;;;;;19.70;9.77;;;;;;;7.64;100.00;101846.59;12199144;19;20018;-81
2023/12/15 16:43:50;;;;;;;22.93;10.60;;;;;;;7.64;100.00;101859.47;12225139;19;20026;-81
2023/12/15 16:47:52;;;;;;;29.17;10.13;;;;;;;7.64;100.00;101856.72;12203003;19;20263;-81
2023/12/15 16:51:55;;;;;;;29.38;10.68;;;;;;;7.65;100.00;101873.00;12226077;19;20013;-81
2023/12/15 16:55:57;;;;;;;21.65;9.88;;;;;;;7.67;100.00;101895.63;12221146;19;20002;-82
2023/12/15 16:59:59;;;;;;;26.73;10.18;;;;;;;7.71;100.00;101885.16;12208091;19;20018;-81
2023/12/15 17:04:01;;;;;;;23.27;10.63;;;;;;;7.72;100.00;101890.47;12226708;19;20383;-80
2023/12/15 17:08:03;;;;;;;25.48;11.65;;;;;;;7.75;100.00;101886.50;12228039;19;20054;-81
2023/12/15 17:12:05;;;;;;;25.90;10.80;;;;;;;7.71;100.00;101886.00;12207755;19;20022;-80
2023/12/15 17:16:15;;;;;;;17.52;7.97;;;;;;;7.68;100.00;101885.53;12239492;19;20007;-80
2023/12/15 17:20:18;;;;;;;22.08;10.45;;;;;;;7.68;100.00;101886.38;12250707;19;20742;-80
2023/12/15 17:24:20;;;;;;;22.58;10.93;;;;;;;7.67;100.00;101887.38;12233018;19;20599;-80
2023/12/15 17:28:22;;;;;;;22.17;10.93;;;;;;;7.69;100.00;101881.75;12250118;19;19998;-81
2023/12/15 17:32:23;;;;;;;24.27;11.40;;;;;;;7.71;100.00;101894.25;12221488;19;20448;-80
2023/12/15 17:36:25;;;;;;;19.38;9.55;;;;;;;7.71;100.00;101909.88;12198338;19;20010;-83
2023/12/15 17:40:27;;;;;;;22.52;10.57;;;;;;;7.73;100.00;101932.47;12215237;19;20470;-80
2023/12/15 17:44:29;;;;;;;19.40;10.45;;;;;;;7.71;100.00;101902.47;12213465;19;20003;-82
2023/12/15 17:48:31;;;;;;;21.50;9.32;;;;;;;7.75;100.00;101927.66;12188656;19;20018;-80
2023/12/15 17:52:33;;;;;;;20.40;10.25;;;;;;;7.83;100.00;101932.28;12211354;19;20057;-81
2023/12/15 17:56:35;;;;;;;22.55;10.65;;;;;;;7.86;100.00;101932.75;12206953;19;20017;-81
2023/12/15 18:00:38;;;;;;;19.70;10.50;;;;;;;7.87;100.00;101925.38;12196099;19;20006;-81
2023/12/15 18:04:40;;;;;;;19.58;9.88;;;;;;;7.83;100.00;101926.78;12212712;19;20623;-80
2023/12/15 18:08:42;;;;;;;24.57;9.97;;;;;;;7.84;100.00;101928.47;12207208;19;20006;-80
2023/12/15 18:12:46;;;;;;;20.67;9.82;;;;;;;7.83;100.00;101904.81;12191219;19;20003;-80
2023/12/15 18:16:48;;;;;;;19.67;9.20;;;;;;;7.81;100.00;101907.72;12214635;19;20493;-81